sensor_id;sensor_type;location;lat;lon;timestamp;pressure;altitude;pressure_sealevel;temperature;humidity
67818;BME280;54614;47.576;7.524;2022-10-26T00:00:47;98401.22;;;28.95;39.93
67818;BME280;54614;47.576;7.524;2022-10-26T00:03:14;98397.13;;;28.81;40.01
67818;BME280;54614;47.576;7.524;2022-10-26T00:05:40;98402.72;;;28.74;40.12
67818;BME280;54614;47.576;7.524;2022-10-26T00:08:06;98407.59;;;28.61;40.75
67818;BME280;54614;47.576;7.524;2022-10-26T00:10:37;98402.03;;;28.67;40.53
67818;BME280;54614;47.576;7.524;2022-10-26T00:13:06;98407.16;;;28.80;40.15
67818;BME280;54614;47.576;7.524;2022-10-26T00:15:33;98403.78;;;28.73;40.48
67818;BME280;54614;47.576;7.524;2022-10-26T00:17:59;98403.09;;;28.66;40.42
67818;BME280;54614;47.576;7.524;2022-10-26T00:20:25;98399.66;;;28.71;40.50
67818;BME280;54614;47.576;7.524;2022-10-26T00:22:51;98399.09;;;28.69;40.64
67818;BME280;54614;47.576;7.524;2022-10-26T00:25:16;98399.25;;;28.62;40.75
67818;BME280;54614;47.576;7.524;2022-10-26T00:27:42;98405.13;;;28.59;40.89
67818;BME280;54614;47.576;7.524;2022-10-26T00:30:09;98405.94;;;28.60;40.63
67818;BME280;54614;47.576;7.524;2022-10-26T00:32:34;98402.78;;;28.79;40.31
67818;BME280;54614;47.576;7.524;2022-10-26T00:35:00;98408.59;;;28.71;40.63
67818;BME280;54614;47.576;7.524;2022-10-26T00:37:26;98408.69;;;28.76;40.60
67818;BME280;54614;47.576;7.524;2022-10-26T00:39:52;98425.00;;;28.65;40.94
67818;BME280;54614;47.576;7.524;2022-10-26T00:42:21;98425.44;;;28.73;40.73
67818;BME280;54614;47.576;7.524;2022-10-26T00:47:57;98428.38;;;28.72;40.44
67818;BME280;54614;47.576;7.524;2022-10-26T00:50:32;98439.94;;;28.67;40.80
67818;BME280;54614;47.576;7.524;2022-10-26T00:53:02;98442.44;;;28.57;40.92
67818;BME280;54614;47.576;7.524;2022-10-26T00:55:34;98443.22;;;28.69;40.51
67818;BME280;54614;47.576;7.524;2022-10-26T00:58:06;98454.91;;;28.58;40.92
67818;BME280;54614;47.576;7.524;2022-10-26T01:00:33;98463.72;;;28.65;40.88
67818;BME280;54614;47.576;7.524;2022-10-26T01:03:04;98482.31;;;28.62;40.77
67818;BME280;54614;47.576;7.524;2022-10-26T01:05:32;98492.78;;;28.58;40.87
67818;BME280;54614;47.576;7.524;2022-10-26T01:08:00;98512.78;;;28.57;40.68
67818;BME280;54614;47.576;7.524;2022-10-26T01:10:28;98540.69;;;28.58;41.23
67818;BME280;54614;47.576;7.524;2022-10-26T01:12:57;98557.16;;;28.56;40.82
67818;BME280;54614;47.576;7.524;2022-10-26T01:15:47;98554.94;;;28.53;41.21
67818;BME280;54614;47.576;7.524;2022-10-26T01:21:57;98550.81;;;28.50;41.20
67818;BME280;54614;47.576;7.524;2022-10-26T01:27:31;98561.25;;;28.70;40.75
67818;BME280;54614;47.576;7.524;2022-10-26T01:30:40;98561.81;;;28.72;40.72
67818;BME280;54614;47.576;7.524;2022-10-26T01:33:31;98541.75;;;28.56;41.14
67818;BME280;54614;47.576;7.524;2022-10-26T01:36:29;98551.84;;;28.61;40.89
67818;BME280;54614;47.576;7.524;2022-10-26T01:39:07;98586.22;;;28.61;41.15
67818;BME280;54614;47.576;7.524;2022-10-26T01:41:45;98564.56;;;28.61;40.72
67818;BME280;54614;47.576;7.524;2022-10-26T01:46:57;98558.69;;;28.52;41.15
67818;BME280;54614;47.576;7.524;2022-10-26T01:49:29;98544.69;;;28.55;41.12
67818;BME280;54614;47.576;7.524;2022-10-26T01:51:57;98550.22;;;28.60;41.15
67818;BME280;54614;47.576;7.524;2022-10-26T01:54:22;98551.63;;;28.51;41.16
67818;BME280;54614;47.576;7.524;2022-10-26T01:56:57;98559.41;;;28.47;41.16
67818;BME280;54614;47.576;7.524;2022-10-26T02:00:00;98558.31;;;28.60;41.06
67818;BME280;54614;47.576;7.524;2022-10-26T02:02:31;98574.38;;;28.38;41.49
67818;BME280;54614;47.576;7.524;2022-10-26T02:05:56;98571.50;;;28.56;41.11
67818;BME280;54614;47.576;7.524;2022-10-26T02:08:54;98559.53;;;28.52;41.21
67818;BME280;54614;47.576;7.524;2022-10-26T02:11:42;98573.41;;;28.56;40.92
67818;BME280;54614;47.576;7.524;2022-10-26T02:14:18;98576.06;;;28.68;40.76
67818;BME280;54614;47.576;7.524;2022-10-26T02:16:56;98558.47;;;28.53;41.23
67818;BME280;54614;47.576;7.524;2022-10-26T02:22:14;98548.22;;;28.55;40.98
67818;BME280;54614;47.576;7.524;2022-10-26T02:24:45;98538.19;;;28.68;40.83
67818;BME280;54614;47.576;7.524;2022-10-26T02:27:30;98540.19;;;28.61;40.89
67818;BME280;54614;47.576;7.524;2022-10-26T02:30:00;98541.59;;;28.63;40.81
67818;BME280;54614;47.576;7.524;2022-10-26T02:32:33;98538.69;;;28.53;41.15
67818;BME280;54614;47.576;7.524;2022-10-26T02:35:02;98534.69;;;28.55;41.03
67818;BME280;54614;47.576;7.524;2022-10-26T02:37:31;98543.50;;;28.63;41.11
67818;BME280;54614;47.576;7.524;2022-10-26T02:40:04;98538.19;;;28.68;40.78
67818;BME280;54614;47.576;7.524;2022-10-26T02:42:32;98544.41;;;28.68;40.65
67818;BME280;54614;47.576;7.524;2022-10-26T02:45:05;98543.59;;;28.68;41.08
67818;BME280;54614;47.576;7.524;2022-10-26T02:47:33;98543.72;;;28.61;41.09
67818;BME280;54614;47.576;7.524;2022-10-26T02:49:59;98544.56;;;28.62;41.21
67818;BME280;54614;47.576;7.524;2022-10-26T02:53:02;98546.00;;;28.52;41.35
67818;BME280;54614;47.576;7.524;2022-10-26T02:55:41;98544.66;;;28.67;41.12
67818;BME280;54614;47.576;7.524;2022-10-26T02:58:21;98536.91;;;28.59;41.11
67818;BME280;54614;47.576;7.524;2022-10-26T03:00:50;98524.78;;;28.61;41.13
67818;BME280;54614;47.576;7.524;2022-10-26T03:03:18;98525.22;;;28.70;40.78
67818;BME280;54614;47.576;7.524;2022-10-26T03:05:44;98533.00;;;28.66;41.03
67818;BME280;54614;47.576;7.524;2022-10-26T03:08:10;98540.34;;;28.54;41.04
67818;BME280;54614;47.576;7.524;2022-10-26T03:10:42;98538.56;;;28.60;40.90
67818;BME280;54614;47.576;7.524;2022-10-26T03:13:10;98540.34;;;28.54;41.23
67818;BME280;54614;47.576;7.524;2022-10-26T03:15:37;98555.75;;;28.53;41.21
67818;BME280;54614;47.576;7.524;2022-10-26T03:18:04;98552.31;;;28.58;41.14
67818;BME280;54614;47.576;7.524;2022-10-26T03:20:30;98548.56;;;28.59;40.82
67818;BME280;54614;47.576;7.524;2022-10-26T03:22:56;98548.22;;;28.55;40.95
67818;BME280;54614;47.576;7.524;2022-10-26T03:25:23;98546.91;;;28.58;40.99
67818;BME280;54614;47.576;7.524;2022-10-26T03:28:00;98548.22;;;28.55;40.98
67818;BME280;54614;47.576;7.524;2022-10-26T03:30:28;98535.97;;;28.65;40.73
67818;BME280;54614;47.576;7.524;2022-10-26T03:32:54;98536.41;;;28.85;41.29
67818;BME280;54614;47.576;7.524;2022-10-26T03:35:20;98546.44;;;29.30;39.83
67818;BME280;54614;47.576;7.524;2022-10-26T03:37:45;98543.69;;;29.13;40.17
67818;BME280;54614;47.576;7.524;2022-10-26T03:40:12;98541.53;;;28.98;40.27
67818;BME280;54614;47.576;7.524;2022-10-26T03:42:39;98521.56;;;28.87;40.50
67818;BME280;54614;47.576;7.524;2022-10-26T03:45:06;98527.00;;;28.64;41.05
67818;BME280;54614;47.576;7.524;2022-10-26T03:47:33;98539.25;;;28.67;40.92
67818;BME280;54614;47.576;7.524;2022-10-26T03:49:59;98535.84;;;28.60;40.91
67818;BME280;54614;47.576;7.524;2022-10-26T03:52:24;98533.53;;;28.51;41.08
67818;BME280;54614;47.576;7.524;2022-10-26T03:54:51;98519.63;;;28.60;40.90
67818;BME280;54614;47.576;7.524;2022-10-26T03:57:17;98503.91;;;28.33;41.65
67818;BME280;54614;47.576;7.524;2022-10-26T03:59:43;98510.28;;;28.67;40.95
67818;BME280;54614;47.576;7.524;2022-10-26T04:02:08;98514.66;;;28.68;40.70
67818;BME280;54614;47.576;7.524;2022-10-26T04:04:36;98524.09;;;28.54;41.07
67818;BME280;54614;47.576;7.524;2022-10-26T04:07:02;98531.16;;;28.55;40.94
67818;BME280;54614;47.576;7.524;2022-10-26T04:09:28;98547.97;;;28.57;40.77
67818;BME280;54614;47.576;7.524;2022-10-26T04:11:54;98544.78;;;28.60;41.01
67818;BME280;54614;47.576;7.524;2022-10-26T04:14:19;98557.38;;;28.66;41.05
67818;BME280;54614;47.576;7.524;2022-10-26T04:16:45;98550.03;;;28.78;40.54
67818;BME280;54614;47.576;7.524;2022-10-26T04:19:20;98551.81;;;28.73;40.53
67818;BME280;54614;47.576;7.524;2022-10-26T04:21:50;98558.28;;;28.83;40.21
67818;BME280;54614;47.576;7.524;2022-10-26T04:24:16;98547.81;;;28.87;40.15
67818;BME280;54614;47.576;7.524;2022-10-26T04:26:42;98537.50;;;29.01;39.88
67818;BME280;54614;47.576;7.524;2022-10-26T04:29:10;98551.69;;;29.19;39.62
67818;BME280;54614;47.576;7.524;2022-10-26T04:31:36;98563.69;;;29.24;39.66
67818;BME280;54614;47.576;7.524;2022-10-26T04:34:01;98560.00;;;29.30;39.09
67818;BME280;54614;47.576;7.524;2022-10-26T04:36:28;98564.88;;;28.76;40.48
67818;BME280;54614;47.576;7.524;2022-10-26T04:38:54;98562.47;;;28.51;40.67
67818;BME280;54614;47.576;7.524;2022-10-26T04:41:20;98541.31;;;28.13;41.54
67818;BME280;54614;47.576;7.524;2022-10-26T04:43:46;98529.66;;;28.01;41.91
67818;BME280;54614;47.576;7.524;2022-10-26T04:46:11;98534.47;;;27.87;42.04
67818;BME280;54614;47.576;7.524;2022-10-26T04:48:39;98550.38;;;27.53;42.93
67818;BME280;54614;47.576;7.524;2022-10-26T04:51:05;98545.91;;;28.24;41.75
67818;BME280;54614;47.576;7.524;2022-10-26T04:53:31;98546.91;;;28.58;41.00
67818;BME280;54614;47.576;7.524;2022-10-26T04:55:59;98543.59;;;28.68;40.45
67818;BME280;54614;47.576;7.524;2022-10-26T04:58:27;98538.19;;;28.68;40.42
67818;BME280;54614;47.576;7.524;2022-10-26T05:00:53;98543.34;;;28.69;40.58
67818;BME280;54614;47.576;7.524;2022-10-26T05:03:19;98552.31;;;28.58;40.82
67818;BME280;54614;47.576;7.524;2022-10-26T05:05:45;98561.09;;;28.77;40.74
67818;BME280;54614;47.576;7.524;2022-10-26T05:08:13;98557.69;;;28.81;40.30
67818;BME280;54614;47.576;7.524;2022-10-26T05:10:39;98564.22;;;28.10;41.78
67818;BME280;54614;47.576;7.524;2022-10-26T05:13:05;98575.50;;;28.66;41.05
67818;BME280;54614;47.576;7.524;2022-10-26T05:15:31;98579.91;;;28.95;40.62
67818;BME280;54614;47.576;7.524;2022-10-26T05:18:01;98581.22;;;29.21;39.67
67818;BME280;54614;47.576;7.524;2022-10-26T05:20:33;98583.56;;;29.29;39.85
67818;BME280;54614;47.576;7.524;2022-10-26T05:23:03;98583.31;;;29.31;39.59
67818;BME280;54614;47.576;7.524;2022-10-26T05:25:33;98591.19;;;29.32;39.74
67818;BME280;54614;47.576;7.524;2022-10-26T05:28:05;98585.91;;;28.97;39.84
67818;BME280;54614;47.576;7.524;2022-10-26T05:30:32;98583.88;;;29.04;40.08
67818;BME280;54614;47.576;7.524;2022-10-26T05:33:00;98583.38;;;28.67;41.96
67818;BME280;54614;47.576;7.524;2022-10-26T05:35:28;98585.53;;;29.05;45.67
67818;BME280;54614;47.576;7.524;2022-10-26T05:37:54;98587.53;;;29.10;44.88
67818;BME280;54614;47.576;7.524;2022-10-26T05:40:20;98593.84;;;29.15;44.33
67818;BME280;54614;47.576;7.524;2022-10-26T05:42:46;98590.09;;;29.16;43.49
67818;BME280;54614;47.576;7.524;2022-10-26T05:45:13;98586.16;;;29.24;43.50
67818;BME280;54614;47.576;7.524;2022-10-26T05:47:43;98593.22;;;29.25;42.53
67818;BME280;54614;47.576;7.524;2022-10-26T05:50:12;98583.41;;;29.36;41.38
67818;BME280;54614;47.576;7.524;2022-10-26T05:52:43;98594.78;;;29.21;41.45
67818;BME280;54614;47.576;7.524;2022-10-26T05:55:12;98598.88;;;29.24;41.28
67818;BME280;54614;47.576;7.524;2022-10-26T05:57:39;98600.69;;;29.18;41.30
67818;BME280;54614;47.576;7.524;2022-10-26T06:00:15;98588.50;;;29.32;41.05
67818;BME280;54614;47.576;7.524;2022-10-26T06:05:56;98615.00;;;28.90;44.02
67818;BME280;54614;47.576;7.524;2022-10-26T06:08:27;98611.38;;;29.25;43.59
67818;BME280;54614;47.576;7.524;2022-10-26T06:10:56;98621.59;;;29.34;42.08
67818;BME280;54614;47.576;7.524;2022-10-26T06:13:24;98625.09;;;29.46;41.31
67818;BME280;54614;47.576;7.524;2022-10-26T06:16:20;98630.28;;;29.48;40.91
67818;BME280;54614;47.576;7.524;2022-10-26T06:19:18;98631.03;;;29.60;40.76
67818;BME280;54614;47.576;7.524;2022-10-26T06:21:59;98636.28;;;29.50;40.84
67818;BME280;54614;47.576;7.524;2022-10-26T06:27:41;98649.72;;;29.45;41.27
67818;BME280;54614;47.576;7.524;2022-10-26T06:30:11;98655.44;;;29.60;40.84
67818;BME280;54614;47.576;7.524;2022-10-26T06:32:39;98652.44;;;29.33;41.25
67818;BME280;54614;47.576;7.524;2022-10-26T06:37:46;98665.78;;;29.63;40.86
67818;BME280;54614;47.576;7.524;2022-10-26T06:40:16;98665.88;;;29.68;40.79
67818;BME280;54614;47.576;7.524;2022-10-26T06:42:43;98674.94;;;29.74;40.51
67818;BME280;54614;47.576;7.524;2022-10-26T06:45:14;98678.78;;;29.78;40.28
67818;BME280;54614;47.576;7.524;2022-10-26T06:48:09;98685.50;;;29.59;40.79
67818;BME280;54614;47.576;7.524;2022-10-26T06:50:37;98685.94;;;29.67;40.64
67818;BME280;54614;47.576;7.524;2022-10-26T06:55:58;98687.09;;;29.71;40.46
67818;BME280;54614;47.576;7.524;2022-10-26T06:58:29;98689.56;;;29.73;40.67
67818;BME280;54614;47.576;7.524;2022-10-26T07:00:58;98696.13;;;29.77;39.99
67818;BME280;54614;47.576;7.524;2022-10-26T07:03:24;98698.22;;;29.58;40.39
67818;BME280;54614;47.576;7.524;2022-10-26T07:05:50;98700.34;;;29.84;40.28
67818;BME280;54614;47.576;7.524;2022-10-26T07:08:16;98694.97;;;30.01;39.87
67818;BME280;54614;47.576;7.524;2022-10-26T07:10:42;98702.78;;;30.14;39.57
67818;BME280;54614;47.576;7.524;2022-10-26T07:13:09;98708.03;;;30.04;39.43
67818;BME280;54614;47.576;7.524;2022-10-26T07:15:36;98710.88;;;29.98;39.95
67818;BME280;54614;47.576;7.524;2022-10-26T07:18:05;98722.69;;;30.03;39.65
67818;BME280;54614;47.576;7.524;2022-10-26T07:20:39;98731.41;;;30.05;39.70
67818;BME280;54614;47.576;7.524;2022-10-26T07:23:07;98739.53;;;30.05;39.68
67818;BME280;54614;47.576;7.524;2022-10-26T07:25:35;98737.31;;;30.02;39.34
67818;BME280;54614;47.576;7.524;2022-10-26T07:28:05;98738.41;;;29.90;39.83
67818;BME280;54614;47.576;7.524;2022-10-26T07:30:33;98740.97;;;29.96;39.42
67818;BME280;54614;47.576;7.524;2022-10-26T07:33:12;98747.50;;;29.83;39.97
67818;BME280;54614;47.576;7.524;2022-10-26T07:35:39;98751.47;;;29.93;39.60
67818;BME280;54614;47.576;7.524;2022-10-26T07:38:06;98756.59;;;29.77;39.79
67818;BME280;54614;47.576;7.524;2022-10-26T07:40:32;98760.38;;;29.76;39.82
67818;BME280;54614;47.576;7.524;2022-10-26T07:42:59;98768.75;;;29.75;40.13
67818;BME280;54614;47.576;7.524;2022-10-26T07:45:28;98766.16;;;29.80;40.23
67818;BME280;54614;47.576;7.524;2022-10-26T07:47:54;98762.75;;;29.73;40.25
67818;BME280;54614;47.576;7.524;2022-10-26T07:50:21;98767.09;;;30.14;39.30
67818;BME280;54614;47.576;7.524;2022-10-26T07:52:47;98768.09;;;29.96;39.52
67818;BME280;54614;47.576;7.524;2022-10-26T07:55:14;98762.03;;;29.77;40.19
67818;BME280;54614;47.576;7.524;2022-10-26T07:57:40;98775.66;;;29.54;40.55
67818;BME280;54614;47.576;7.524;2022-10-26T08:00:08;98781.81;;;29.49;40.52
67818;BME280;54614;47.576;7.524;2022-10-26T08:02:35;98782.75;;;29.43;40.82
67818;BME280;54614;47.576;7.524;2022-10-26T08:05:01;98792.41;;;29.39;40.54
67818;BME280;54614;47.576;7.524;2022-10-26T08:07:27;98794.28;;;29.50;40.33
67818;BME280;54614;47.576;7.524;2022-10-26T08:09:53;98805.84;;;29.46;40.53
67818;BME280;54614;47.576;7.524;2022-10-26T08:12:19;98802.41;;;29.39;40.52
67818;BME280;54614;47.576;7.524;2022-10-26T08:14:45;98801.59;;;29.38;40.26
67818;BME280;54614;47.576;7.524;2022-10-26T08:17:11;98805.13;;;29.39;40.39
67818;BME280;54614;47.576;7.524;2022-10-26T08:19:37;98805.84;;;29.34;40.54
67818;BME280;54614;47.576;7.524;2022-10-26T08:22:03;98810.66;;;29.32;40.60
67818;BME280;54614;47.576;7.524;2022-10-26T08:24:29;98806.88;;;29.57;40.08
67818;BME280;54614;47.576;7.524;2022-10-26T08:26:55;98800.19;;;29.47;40.42
67818;BME280;54614;47.576;7.524;2022-10-26T08:29:21;98809.47;;;29.63;40.05
67818;BME280;54614;47.576;7.524;2022-10-26T08:31:48;98802.31;;;29.45;40.59
67818;BME280;54614;47.576;7.524;2022-10-26T08:34:14;98798.88;;;29.38;40.67
67818;BME280;54614;47.576;7.524;2022-10-26T08:36:40;98802.78;;;29.42;40.61
67818;BME280;54614;47.576;7.524;2022-10-26T08:39:05;98797.44;;;29.59;40.25
67818;BME280;54614;47.576;7.524;2022-10-26T08:41:44;98788.06;;;29.78;39.97
67818;BME280;54614;47.576;7.524;2022-10-26T08:44:30;98790.84;;;29.95;39.58
67818;BME280;54614;47.576;7.524;2022-10-26T08:47:26;98793.59;;;29.83;39.86
67818;BME280;54614;47.576;7.524;2022-10-26T08:52:52;98803.72;;;29.48;40.38
67818;BME280;54614;47.576;7.524;2022-10-26T08:55:38;98813.84;;;29.52;40.31
67818;BME280;54614;47.576;7.524;2022-10-26T08:58:14;98814.19;;;29.56;40.38
67818;BME280;54614;47.576;7.524;2022-10-26T09:00:41;98814.16;;;29.68;40.20
67818;BME280;54614;47.576;7.524;2022-10-26T09:03:17;98809.00;;;30.06;39.55
67818;BME280;54614;47.576;7.524;2022-10-26T09:08:33;98813.63;;;29.94;39.91
67818;BME280;54614;47.576;7.524;2022-10-26T09:11:21;98814.53;;;30.11;39.58
67818;BME280;54614;47.576;7.524;2022-10-26T09:13:57;98813.94;;;30.09;39.55
67818;BME280;54614;47.576;7.524;2022-10-26T09:24:54;98817.91;;;30.19;39.60
67818;BME280;54614;47.576;7.524;2022-10-26T09:27:33;98821.94;;;30.16;39.59
67818;BME280;54614;47.576;7.524;2022-10-26T09:30:12;98821.59;;;30.12;39.62
67818;BME280;54614;47.576;7.524;2022-10-26T09:32:47;98828.91;;;30.12;39.35
67818;BME280;54614;47.576;7.524;2022-10-26T09:46:19;98833.00;;;29.74;40.28
67818;BME280;54614;47.576;7.524;2022-10-26T09:49:03;98830.94;;;29.93;39.83
67818;BME280;54614;47.576;7.524;2022-10-26T09:51:32;98835.41;;;29.99;39.66
67818;BME280;54614;47.576;7.524;2022-10-26T09:53:59;98835.34;;;29.82;40.06
67818;BME280;54614;47.576;7.524;2022-10-26T09:56:29;98845.19;;;30.00;39.80
67818;BME280;54614;47.576;7.524;2022-10-26T09:59:01;98841.91;;;29.98;39.69
67818;BME280;54614;47.576;7.524;2022-10-26T10:01:34;98849.38;;;29.79;39.84
67818;BME280;54614;47.576;7.524;2022-10-26T10:06:39;98855.44;;;29.23;41.33
67818;BME280;54614;47.576;7.524;2022-10-26T10:09:24;98854.50;;;29.06;41.38
67818;BME280;54614;47.576;7.524;2022-10-26T10:11:56;98860.13;;;29.39;40.84
67818;BME280;54614;47.576;7.524;2022-10-26T10:14:31;98858.94;;;29.82;39.58
67818;BME280;54614;47.576;7.524;2022-10-26T10:17:18;98859.66;;;29.77;39.86
67818;BME280;54614;47.576;7.524;2022-10-26T10:19:45;98858.69;;;29.83;39.67
67818;BME280;54614;47.576;7.524;2022-10-26T10:22:19;98861.47;;;30.00;39.23
67818;BME280;54614;47.576;7.524;2022-10-26T10:24:57;98858.69;;;29.83;39.70
67818;BME280;54614;47.576;7.524;2022-10-26T10:27:24;98857.28;;;29.81;39.52
67818;BME280;54614;47.576;7.524;2022-10-26T10:29:54;98863.31;;;29.71;39.37
67818;BME280;54614;47.576;7.524;2022-10-26T10:32:26;98867.56;;;29.67;39.85
67818;BME280;54614;47.576;7.524;2022-10-26T10:34:57;98872.31;;;29.48;40.82
67818;BME280;54614;47.576;7.524;2022-10-26T10:37:28;98869.78;;;29.70;40.07
67818;BME280;54614;47.576;7.524;2022-10-26T10:40:26;98877.59;;;29.67;40.16
67818;BME280;54614;47.576;7.524;2022-10-26T10:43:04;98868.59;;;29.78;39.99
67818;BME280;54614;47.576;7.524;2022-10-26T10:45:32;98869.22;;;29.57;40.26
67818;BME280;54614;47.576;7.524;2022-10-26T10:53:44;98876.25;;;29.81;40.04
67818;BME280;54614;47.576;7.524;2022-10-26T10:56:48;98879.81;;;29.70;40.31
67818;BME280;54614;47.576;7.524;2022-10-26T11:07:25;98876.91;;;30.11;39.53
67818;BME280;54614;47.576;7.524;2022-10-26T11:09:54;98871.38;;;30.06;39.27
67818;BME280;54614;47.576;7.524;2022-10-26T11:12:28;98869.59;;;30.00;39.80
67818;BME280;54614;47.576;7.524;2022-10-26T11:15:10;98877.09;;;29.81;40.20
67818;BME280;54614;47.576;7.524;2022-10-26T11:18:07;98871.09;;;29.68;40.35
67818;BME280;54614;47.576;7.524;2022-10-26T11:20:49;98878.88;;;29.29;41.17
67818;BME280;54614;47.576;7.524;2022-10-26T11:23:42;98883.22;;;29.18;41.32
67818;BME280;54614;47.576;7.524;2022-10-26T11:26:34;98891.47;;;29.12;41.49
67818;BME280;54614;47.576;7.524;2022-10-26T11:29:30;98881.69;;;29.11;41.21
67818;BME280;54614;47.576;7.524;2022-10-26T11:32:27;98880.50;;;29.07;41.46
67818;BME280;54614;47.576;7.524;2022-10-26T11:41:02;98880.28;;;29.20;41.36
67818;BME280;54614;47.576;7.524;2022-10-26T11:43:44;98884.91;;;29.55;40.31
67818;BME280;54614;47.576;7.524;2022-10-26T11:49:12;98888.44;;;29.55;40.35
67818;BME280;54614;47.576;7.524;2022-10-26T11:54:55;98889.25;;;29.32;40.52
67818;BME280;54614;47.576;7.524;2022-10-26T11:57:25;98890.66;;;29.23;40.71
67818;BME280;54614;47.576;7.524;2022-10-26T12:00:05;98886.19;;;29.17;40.90
67818;BME280;54614;47.576;7.524;2022-10-26T12:02:39;98887.09;;;28.99;41.38
67818;BME280;54614;47.576;7.524;2022-10-26T12:07:47;98900.50;;;28.94;41.32
67818;BME280;54614;47.576;7.524;2022-10-26T12:10:28;98900.41;;;29.01;41.25
67818;BME280;54614;47.576;7.524;2022-10-26T12:18:51;98897.63;;;29.54;40.71
67818;BME280;54614;47.576;7.524;2022-10-26T12:21:20;98893.97;;;29.72;40.51
67818;BME280;54614;47.576;7.524;2022-10-26T12:24:29;98897.75;;;29.59;40.70
67818;BME280;54614;47.576;7.524;2022-10-26T12:27:04;98894.53;;;29.39;40.72
67818;BME280;54614;47.576;7.524;2022-10-26T12:29:46;98896.56;;;29.43;40.57
67818;BME280;54614;47.576;7.524;2022-10-26T12:35:01;98899.06;;;29.45;40.77
67818;BME280;54614;47.576;7.524;2022-10-26T12:37:36;98897.53;;;29.49;40.45
67818;BME280;54614;47.576;7.524;2022-10-26T12:45:45;98892.81;;;29.56;40.13
67818;BME280;54614;47.576;7.524;2022-10-26T12:48:41;98904.47;;;29.57;40.55
67818;BME280;54614;47.576;7.524;2022-10-26T12:54:24;98908.22;;;29.79;39.96
67818;BME280;54614;47.576;7.524;2022-10-26T12:59:58;98909.50;;;29.76;39.88
67818;BME280;54614;47.576;7.524;2022-10-26T13:08:08;98916.13;;;29.69;40.25
67818;BME280;54614;47.576;7.524;2022-10-26T13:10:36;98912.59;;;29.68;40.26
67818;BME280;54614;47.576;7.524;2022-10-26T13:13:06;98910.94;;;29.67;40.19
67818;BME280;54614;47.576;7.524;2022-10-26T13:15:52;98907.88;;;29.64;40.38
67818;BME280;54614;47.576;7.524;2022-10-26T13:18:20;98911.66;;;29.63;40.13
67818;BME280;54614;47.576;7.524;2022-10-26T13:21:07;98910.34;;;29.77;40.04
67818;BME280;54614;47.576;7.524;2022-10-26T13:23:46;98901.94;;;29.90;39.89
67818;BME280;54614;47.576;7.524;2022-10-26T13:26:27;98907.84;;;29.87;39.98
67818;BME280;54614;47.576;7.524;2022-10-26T13:29:00;98904.53;;;29.97;39.47
67818;BME280;54614;47.576;7.524;2022-10-26T13:34:25;98913.50;;;29.86;39.80
67818;BME280;54614;47.576;7.524;2022-10-26T13:37:18;98901.47;;;30.05;39.36
67818;BME280;54614;47.576;7.524;2022-10-26T13:39:49;98899.69;;;30.39;38.78
67818;BME280;54614;47.576;7.524;2022-10-26T13:42:25;98901.34;;;29.88;39.83
67818;BME280;54614;47.576;7.524;2022-10-26T13:45:04;98898.06;;;29.86;39.85
67818;BME280;54614;47.576;7.524;2022-10-26T13:48:11;98903.47;;;29.86;40.09
67818;BME280;54614;47.576;7.524;2022-10-26T13:50:48;98900.16;;;30.07;39.25
67818;BME280;54614;47.576;7.524;2022-10-26T13:56:30;98896.53;;;29.90;39.63
67818;BME280;54614;47.576;7.524;2022-10-26T13:59:11;98913.06;;;29.77;40.27
67818;BME280;54614;47.576;7.524;2022-10-26T14:01:38;98910.94;;;29.79;40.08
67818;BME280;54614;47.576;7.524;2022-10-26T14:04:25;98907.75;;;29.82;39.75
67818;BME280;54614;47.576;7.524;2022-10-26T14:06:52;98910.28;;;30.00;39.60
67818;BME280;54614;47.576;7.524;2022-10-26T14:09:20;98917.16;;;29.79;40.28
67818;BME280;54614;47.576;7.524;2022-10-26T14:12:01;98913.13;;;29.94;39.45
67818;BME280;54614;47.576;7.524;2022-10-26T14:14:36;98920.47;;;29.70;40.23
67818;BME280;54614;47.576;7.524;2022-10-26T14:17:03;98924.47;;;29.91;39.92
67818;BME280;54614;47.576;7.524;2022-10-26T14:19:35;98936.25;;;29.84;40.05
67818;BME280;54614;47.576;7.524;2022-10-26T14:22:03;98930.59;;;29.86;40.07
67818;BME280;54614;47.576;7.524;2022-10-26T14:24:36;98929.91;;;29.79;40.20
67818;BME280;54614;47.576;7.524;2022-10-26T14:27:17;98933.44;;;29.79;40.27
67818;BME280;54614;47.576;7.524;2022-10-26T14:29:43;98936.16;;;29.79;40.16
67818;BME280;54614;47.576;7.524;2022-10-26T14:32:30;98937.81;;;29.69;40.44
67818;BME280;54614;47.576;7.524;2022-10-26T14:35:01;98928.59;;;29.81;40.26
67818;BME280;54614;47.576;7.524;2022-10-26T14:37:42;98926.84;;;29.87;40.09
67818;BME280;54614;47.576;7.524;2022-10-26T14:40:19;98920.78;;;30.20;39.26
67818;BME280;54614;47.576;7.524;2022-10-26T14:42:50;98918.22;;;30.42;38.74
67818;BME280;54614;47.576;7.524;2022-10-26T14:47:57;98927.03;;;30.21;39.01
67818;BME280;54614;47.576;7.524;2022-10-26T14:50:25;98931.41;;;30.10;39.01
67818;BME280;54614;47.576;7.524;2022-10-26T14:53:18;98934.56;;;30.19;38.85
67818;BME280;54614;47.576;7.524;2022-10-26T14:55:52;98932.50;;;29.74;40.26
67818;BME280;54614;47.576;7.524;2022-10-26T14:58:26;98935.63;;;30.18;38.95
67818;BME280;54614;47.576;7.524;2022-10-26T15:01:28;98932.81;;;30.12;39.07
67818;BME280;54614;47.576;7.524;2022-10-26T15:04:04;98929.53;;;29.87;39.27
67818;BME280;54614;47.576;7.524;2022-10-26T15:06:38;98939.69;;;29.80;39.50
67818;BME280;54614;47.576;7.524;2022-10-26T15:09:05;98942.53;;;29.62;39.72
67818;BME280;54614;47.576;7.524;2022-10-26T15:11:42;98944.53;;;29.66;39.81
67818;BME280;54614;47.576;7.524;2022-10-26T15:14:11;98945.59;;;29.54;40.13
67818;BME280;54614;47.576;7.524;2022-10-26T15:16:37;98955.84;;;29.63;39.89
67818;BME280;54614;47.576;7.524;2022-10-26T15:19:18;98946.53;;;29.71;39.45
67818;BME280;54614;47.576;7.524;2022-10-26T15:21:50;98953.63;;;29.48;40.06
67818;BME280;54614;47.576;7.524;2022-10-26T15:26:46;98953.03;;;29.58;39.79
67818;BME280;54614;47.576;7.524;2022-10-26T15:29:42;98949.84;;;29.49;40.12